Time;durP1;ratioP1;P1;durP2;ratioP2;P2;SDS_P1;SDS_P2;PMS_P1;PMS_P2;Temp;Humidity;BMP_temperature;BMP_pressure;BME280_temperature;BME280_humidity;BME280_pressure;Samples;Min_cycle;Max_cycle;Signal;HPM_P1;HPM_P2
2021/01/08 06:50:16;;;;;;;11.50;7.43;;;1.70;99.90;;;;;;4890777;29;20936;-89
2021/01/08 06:52:46;;;;;;;17.90;10.50;;;1.70;99.90;;;;;;4923571;29;20376;-89
2021/01/08 06:55:19;;;;;;;14.00;10.67;;;1.70;99.90;;;;;;4922577;29;20868;-89
2021/01/08 07:43:56;;;;;;;16.30;11.70;;;1.60;99.90;;;;;;4919002;28;20453;-89
2021/01/08 07:46:28;;;;;;;18.70;11.13;;;1.60;99.90;;;;;;5021173;28;20467;-89
2021/01/08 08:51:10;;;;;;;;;;;;;;;;;;;;;
2021/01/08 09:22:22;;;;;;;31.40;19.07;;;1.90;99.90;;;;;;6001461;23;20413;-87
2021/01/08 09:24:50;;;;;;;29.50;18.83;;;1.90;99.90;;;;;;6158251;23;20417;-87
2021/01/08 09:27:18;;;;;;;29.03;16.43;;;1.90;99.90;;;;;;6177682;23;20469;-87
2021/01/08 09:29:45;;;;;;;29.23;19.73;;;2.00;99.90;;;;;;6171562;23;20471;-88
2021/01/08 10:46:02;;;;;;;28.43;19.07;;;2.40;99.90;;;;;;6033175;23;20423;-87
2021/01/08 13:21:39;;;;;;;20.20;14.60;;;3.00;99.90;;;;;;5847088;24;20469;-87
2021/01/08 13:24:45;;;;;;;17.80;14.13;;;3.00;99.90;;;;;;6096930;23;20908;-87
2021/01/08 13:27:13;;;;;;;17.17;13.40;;;3.00;99.90;;;;;;6178288;23;20423;-87
2021/01/08 13:29:40;;;;;;;17.73;12.40;;;3.00;99.90;;;;;;6178844;23;20442;-87
2021/01/08 13:32:08;;;;;;;17.57;13.63;;;3.00;99.90;;;;;;6178784;23;20415;-87
2021/01/08 13:34:36;;;;;;;16.80;13.50;;;3.00;99.90;;;;;;6172288;23;20478;-87
2021/01/08 13:37:05;;;;;;;17.90;14.13;;;3.00;99.90;;;;;;6207370;23;20880;-87
2021/01/08 13:39:32;;;;;;;18.67;14.20;;;3.00;99.90;;;;;;6170510;23;20495;-87
2021/01/08 13:42:01;;;;;;;16.83;13.30;;;3.00;99.90;;;;;;6171960;23;20440;-87
2021/01/08 13:44:28;;;;;;;14.30;12.40;;;3.10;99.90;;;;;;6173618;23;20427;-87
2021/01/08 13:46:56;;;;;;;15.93;14.33;;;3.10;99.90;;;;;;6173692;23;20412;-87
2021/01/08 13:49:24;;;;;;;15.13;12.80;;;3.00;99.90;;;;;;6173221;23;20443;-87
2021/01/08 13:51:56;;;;;;;16.50;14.17;;;3.00;99.90;;;;;;6173969;23;20416;-87
2021/01/08 13:54:25;;;;;;;16.70;14.20;;;3.00;99.90;;;;;;6174079;23;20487;-87
2021/01/08 13:56:52;;;;;;;18.30;13.23;;;3.10;99.90;;;;;;6173567;23;20424;-87
2021/01/08 13:59:20;;;;;;;17.87;13.53;;;3.00;99.90;;;;;;6174272;23;20950;-87
2021/01/08 14:01:47;;;;;;;16.97;12.90;;;3.10;99.90;;;;;;6172942;23;20427;-87
2021/01/08 14:04:15;;;;;;;15.40;12.70;;;3.10;99.90;;;;;;6174718;23;20419;-87
2021/01/08 14:06:43;;;;;;;16.73;13.63;;;3.00;99.90;;;;;;6172188;23;20906;-87
2021/01/08 14:09:12;;;;;;;20.30;15.40;;;3.00;99.90;;;;;;6172821;23;20442;-87
2021/01/08 14:11:41;;;;;;;17.33;14.10;;;3.10;99.90;;;;;;6208077;23;20397;-87
2021/01/08 14:14:10;;;;;;;16.30;13.23;;;3.20;99.90;;;;;;6169551;23;20419;-87
2021/01/08 14:16:40;;;;;;;18.03;13.60;;;3.00;99.90;;;;;;6171185;23;20447;-87
2021/01/08 14:19:08;;;;;;;16.37;14.20;;;3.00;99.90;;;;;;6169318;23;20432;-87
2021/01/08 14:21:37;;;;;;;14.67;12.53;;;3.00;99.90;;;;;;6170168;23;20479;-87
2021/01/08 14:24:06;;;;;;;17.37;14.03;;;3.00;99.90;;;;;;6171322;23;20436;-87
2021/01/08 14:26:34;;;;;;;17.90;13.40;;;3.00;99.90;;;;;;6171945;23;20423;-87
2021/01/08 14:29:03;;;;;;;14.13;11.93;;;3.00;99.90;;;;;;6169953;23;20451;-87
2021/01/08 14:31:32;;;;;;;15.00;12.80;;;2.90;99.90;;;;;;6171090;23;20430;-87
2021/01/08 14:34:01;;;;;;;16.20;13.30;;;2.90;99.90;;;;;;6170692;23;20408;-87
2021/01/08 14:36:30;;;;;;;15.80;12.20;;;2.90;99.90;;;;;;6171485;23;20401;-87
2021/01/08 14:38:58;;;;;;;18.77;14.37;;;2.90;99.90;;;;;;6171088;23;20443;-87
2021/01/08 14:41:26;;;;;;;17.40;14.53;;;2.90;99.90;;;;;;6172114;23;20411;-87
2021/01/08 14:43:55;;;;;;;16.00;14.17;;;2.90;99.90;;;;;;6170747;23;20447;-87
2021/01/08 14:46:24;;;;;;;19.33;14.80;;;2.90;99.90;;;;;;6169362;23;20408;-87
2021/01/08 14:48:52;;;;;;;16.60;13.53;;;2.90;99.90;;;;;;6169594;23;20471;-87
2021/01/08 14:51:27;;;;;;;15.20;13.60;;;2.90;99.90;;;;;;5925576;23;20457;-87
2021/01/08 14:53:56;;;;;;;14.57;11.93;;;2.90;99.90;;;;;;5528795;23;20440;-87
2021/01/08 14:56:24;;;;;;;14.90;12.20;;;2.80;99.90;;;;;;5402002;23;21164;-87
2021/01/08 14:58:51;;;;;;;12.93;11.40;;;2.80;99.90;;;;;;1361944;23;107396453;-87
2021/01/08 15:01:24;;;;;;;11.73;10.15;;;2.80;99.90;;;;;;3825872;23;20149698;-87
2021/01/08 15:03:51;;;;;;;16.43;12.73;;;2.80;99.90;;;;;;5276093;23;30458;-87
2021/01/08 15:06:19;;;;;;;16.20;12.20;;;2.90;99.90;;;;;;6045340;23;20424;-87
2021/01/08 15:08:47;;;;;;;18.50;13.13;;;2.90;99.90;;;;;;6054713;23;20436;-87
2021/01/08 15:11:15;;;;;;;14.93;12.97;;;2.90;99.90;;;;;;6048470;23;20434;-87
2021/01/08 15:13:43;;;;;;;14.52;10.82;;;2.90;99.90;;;;;;6022773;23;20419;-87
2021/01/08 15:16:13;;;;;;;14.60;11.07;;;3.00;99.90;;;;;;6024334;23;20176;-87
2021/01/08 15:18:41;;;;;;;13.27;11.37;;;2.90;99.90;;;;;;6022515;23;21023;-87
2021/01/08 15:21:11;;;;;;;15.07;12.93;;;2.90;99.90;;;;;;6022882;23;20424;-87
2021/01/08 15:23:38;;;;;;;14.73;12.57;;;2.90;99.90;;;;;;6020684;23;20449;-87
2021/01/08 15:26:07;;;;;;;14.87;11.80;;;2.90;99.90;;;;;;6048018;23;20426;-86
2021/01/08 15:28:35;;;;;;;13.50;11.07;;;2.80;99.90;;;;;;6058027;23;20469;-86
2021/01/08 15:31:02;;;;;;;12.53;10.97;;;2.80;99.90;;;;;;6048539;23;20464;-87
2021/01/08 15:33:30;;;;;;;14.57;11.87;;;2.80;99.90;;;;;;5996134;23;20447;-87
2021/01/08 15:36:01;;;;;;;11.60;10.10;;;2.70;99.90;;;;;;6049749;23;20431;-87
2021/01/08 15:42:14;;;;;;;15.13;12.13;;;2.70;99.90;;;;;;6051016;23;20424;-87
2021/01/08 15:45:00;;;;;;;16.60;13.77;;;2.70;99.90;;;;;;6075732;23;20419;-87
2021/01/08 15:47:28;;;;;;;15.83;13.33;;;2.70;99.90;;;;;;6076674;23;20419;-87
2021/01/08 15:49:58;;;;;;;14.47;11.73;;;2.60;99.90;;;;;;6076599;23;20486;-87
2021/01/08 15:52:30;;;;;;;14.53;12.57;;;2.60;99.90;;;;;;6075154;23;20494;-87
2021/01/08 15:55:12;;;;;;;14.03;11.67;;;2.60;99.90;;;;;;6076058;23;20416;-87
2021/01/08 16:00:41;;;;;;;9.80;8.80;;;2.60;99.90;;;;;;6048402;23;20452;-87
2021/01/08 16:03:12;;;;;;;12.10;9.90;;;2.60;99.90;;;;;;6076286;23;20439;-87
2021/01/08 16:05:39;;;;;;;13.50;10.90;;;2.50;99.90;;;;;;6052214;23;20430;-87
2021/01/08 16:08:08;;;;;;;12.50;11.20;;;2.60;99.90;;;;;;6075237;23;20482;-87
2021/01/08 16:10:36;;;;;;;13.33;11.93;;;2.50;99.90;;;;;;6051479;23;20427;-87
2021/01/08 16:13:04;;;;;;;12.33;10.97;;;2.50;99.90;;;;;;6051917;23;20397;-87
2021/01/08 16:15:31;;;;;;;12.47;10.80;;;2.50;99.90;;;;;;6076332;23;20471;-87
2021/01/08 16:18:01;;;;;;;12.70;11.40;;;2.50;99.90;;;;;;6075653;23;20499;-87
2021/01/08 16:20:35;;;;;;;13.73;11.93;;;2.50;99.90;;;;;;6076177;23;20430;-87
2021/01/08 16:23:03;;;;;;;13.80;12.40;;;2.50;99.90;;;;;;6051918;23;21005;-87
2021/01/08 16:25:33;;;;;;;12.93;11.30;;;2.50;99.90;;;;;;6075867;23;20416;-87
2021/01/08 16:28:01;;;;;;;16.10;12.90;;;2.40;99.90;;;;;;6052457;23;20820;-87
2021/01/08 16:30:29;;;;;;;15.23;12.50;;;2.40;99.90;;;;;;6052305;23;20499;-87
2021/01/08 16:33:00;;;;;;;13.47;12.03;;;2.40;99.90;;;;;;6051922;23;20411;-87
2021/01/08 16:35:28;;;;;;;13.47;11.30;;;2.40;99.90;;;;;;6050684;23;20447;-87
2021/01/08 16:37:57;;;;;;;13.60;11.97;;;2.40;99.90;;;;;;6086117;23;20398;-87
2021/01/08 16:40:25;;;;;;;12.70;10.60;;;2.40;99.90;;;;;;6075516;23;20426;-87
2021/01/08 16:42:53;;;;;;;14.27;12.50;;;2.40;99.90;;;;;;6051922;23;20514;-87
2021/01/08 16:45:21;;;;;;;14.03;12.50;;;2.40;99.90;;;;;;6051577;23;20415;-87
2021/01/08 16:47:49;;;;;;;14.00;11.40;;;2.40;99.90;;;;;;6052728;23;20433;-87
2021/01/08 16:50:16;;;;;;;15.50;13.17;;;2.40;99.90;;;;;;6052466;23;20416;-87
2021/01/08 16:52:43;;;;;;;15.27;13.77;;;2.40;99.90;;;;;;6076787;23;20895;-87
2021/01/08 16:55:12;;;;;;;14.40;12.50;;;2.30;99.90;;;;;;6075649;23;20736;-87
2021/01/08 16:57:39;;;;;;;19.33;16.43;;;2.30;99.90;;;;;;6052425;23;20463;-87
2021/01/08 17:00:10;;;;;;;15.90;13.33;;;2.30;99.90;;;;;;6078003;23;20415;-87
2021/01/08 17:02:38;;;;;;;14.43;12.90;;;2.30;99.90;;;;;;6077704;23;20443;-87
2021/01/08 17:05:07;;;;;;;16.43;13.40;;;2.30;99.90;;;;;;6053795;23;20428;-87
2021/01/08 17:07:35;;;;;;;15.17;13.57;;;2.30;99.90;;;;;;6077472;23;20424;-87
2021/01/08 17:10:03;;;;;;;17.00;15.17;;;2.30;99.90;;;;;;6078906;23;20436;-87
2021/01/08 17:12:30;;;;;;;16.00;13.50;;;2.30;99.90;;;;;;6079863;23;20414;-87
2021/01/08 17:14:59;;;;;;;18.00;15.03;;;2.30;99.90;;;;;;6055481;23;20408;-87
2021/01/08 17:17:27;;;;;;;17.50;15.63;;;2.30;99.90;;;;;;6079518;23;20419;-87
2021/01/08 17:19:54;;;;;;;15.60;14.00;;;2.30;99.90;;;;;;6079551;23;20447;-87
2021/01/08 17:22:22;;;;;;;16.00;14.30;;;2.30;99.90;;;;;;6078246;23;20412;-87
2021/01/08 17:24:49;;;;;;;14.30;12.73;;;2.20;99.90;;;;;;6077105;23;20907;-87
2021/01/08 17:27:17;;;;;;;15.30;12.60;;;2.20;99.90;;;;;;6078000;23;20444;-87
2021/01/08 17:29:44;;;;;;;14.63;13.13;;;2.20;99.90;;;;;;6054384;23;20443;-87
2021/01/08 17:32:12;;;;;;;14.83;12.10;;;2.30;99.90;;;;;;6054205;23;20523;-87
2021/01/08 17:34:40;;;;;;;14.93;12.40;;;2.20;99.90;;;;;;6054026;23;20411;-87
2021/01/08 17:37:08;;;;;;;15.13;13.13;;;2.20;99.90;;;;;;6078384;23;20498;-87
2021/01/08 17:39:39;;;;;;;14.57;12.90;;;2.20;99.90;;;;;;6055261;23;20443;-87
2021/01/08 17:42:07;;;;;;;14.20;11.63;;;2.10;99.90;;;;;;6054625;23;20466;-87
2021/01/08 17:44:34;;;;;;;15.17;13.30;;;2.20;99.90;;;;;;6089404;23;20424;-87
2021/01/08 17:47:02;;;;;;;15.00;11.87;;;2.20;99.90;;;;;;6078204;23;20416;-87
2021/01/08 17:49:30;;;;;;;16.00;11.60;;;2.20;99.90;;;;;;6077281;23;20448;-87
2021/01/08 17:52:02;;;;;;;12.93;11.53;;;2.10;99.90;;;;;;6078736;23;20442;-87
2021/01/08 17:54:29;;;;;;;13.83;12.37;;;2.10;99.90;;;;;;6089134;23;20408;-87
2021/01/08 17:56:57;;;;;;;15.60;13.23;;;2.20;99.90;;;;;;6078353;23;20411;-87
2021/01/08 17:59:25;;;;;;;16.00;14.40;;;2.10;99.90;;;;;;6077808;23;20444;-87
2021/01/08 18:01:53;;;;;;;16.10;14.43;;;2.10;99.90;;;;;;6078949;23;20474;-87
2021/01/08 18:04:23;;;;;;;15.53;12.93;;;2.10;99.90;;;;;;6054563;23;20472;-87
2021/01/08 18:06:51;;;;;;;13.27;11.63;;;2.10;99.90;;;;;;6079573;23;20447;-86
2021/01/08 18:09:19;;;;;;;14.00;12.43;;;2.10;99.90;;;;;;6064004;23;20439;-86
2021/01/08 18:11:47;;;;;;;12.43;11.13;;;2.10;99.90;;;;;;6091834;23;20395;-87
2021/01/08 18:14:16;;;;;;;14.13;10.57;;;2.10;99.90;;;;;;6053482;23;20463;-87
2021/01/08 18:16:52;;;;;;;14.90;11.47;;;2.00;99.90;;;;;;6054124;23;20407;-87
2021/01/08 18:19:19;;;;;;;14.07;12.57;;;2.00;99.90;;;;;;6054101;23;20444;-87
2021/01/08 18:21:49;;;;;;;14.37;12.87;;;2.00;99.90;;;;;;6054089;23;20479;-87
2021/01/08 18:24:18;;;;;;;18.57;15.93;;;2.00;99.90;;;;;;6077516;23;20435;-87
2021/01/08 18:26:46;;;;;;;14.60;11.80;;;2.00;99.90;;;;;;6052232;23;20419;-86
2021/01/08 18:29:14;;;;;;;12.37;11.00;;;2.00;99.90;;;;;;6053165;23;20443;-87
2021/01/08 18:31:42;;;;;;;17.37;13.40;;;2.00;99.90;;;;;;6088170;23;20847;-86
2021/01/08 18:34:10;;;;;;;17.27;15.50;;;2.00;99.90;;;;;;6054069;23;20435;-86
2021/01/08 18:36:39;;;;;;;14.73;12.97;;;2.00;99.90;;;;;;6077713;23;20460;-87
2021/01/08 18:39:08;;;;;;;18.57;15.43;;;2.00;99.90;;;;;;6088569;23;20423;-87
2021/01/08 18:41:37;;;;;;;16.10;14.60;;;2.00;99.90;;;;;;6076706;23;20439;-87
2021/01/08 18:44:06;;;;;;;16.90;15.10;;;2.00;99.90;;;;;;6077319;23;20950;-87
2021/01/08 18:46:36;;;;;;;16.70;14.13;;;2.00;99.90;;;;;;6052626;23;20420;-86
2021/01/08 18:49:04;;;;;;;14.20;12.70;;;2.00;99.90;;;;;;6076866;23;20455;-87
2021/01/08 18:51:32;;;;;;;14.23;12.83;;;2.00;99.90;;;;;;6052007;23;20495;-87
2021/01/08 18:54:00;;;;;;;15.13;13.53;;;2.00;99.90;;;;;;6076793;23;20743;-87
2021/01/08 18:56:39;;;;;;;16.60;14.80;;;2.00;99.90;;;;;;6076446;23;20419;-86
2021/01/08 18:59:08;;;;;;;16.20;14.03;;;2.00;99.90;;;;;;6052485;23;20451;-87
2021/01/08 19:01:37;;;;;;;15.93;14.33;;;2.00;99.90;;;;;;6076444;23;20402;-87
2021/01/08 19:04:08;;;;;;;15.63;13.33;;;1.90;99.90;;;;;;6075772;23;20555;-86
2021/01/08 19:06:39;;;;;;;14.77;11.70;;;1.90;99.90;;;;;;6050835;23;20412;-86
2021/01/08 19:09:08;;;;;;;14.60;12.73;;;2.00;99.90;;;;;;6049663;23;20522;-86
2021/01/08 19:11:38;;;;;;;17.30;13.43;;;1.90;99.90;;;;;;6049732;23;20404;-86
2021/01/08 19:14:06;;;;;;;17.63;14.90;;;1.90;99.90;;;;;;6049854;23;20412;-86
2021/01/08 19:16:36;;;;;;;14.97;13.30;;;1.90;99.90;;;;;;6075375;23;20419;-86
2021/01/08 19:19:04;;;;;;;17.10;12.67;;;2.00;99.90;;;;;;6051689;23;20838;-86
2021/01/08 19:21:31;;;;;;;14.57;13.07;;;1.90;99.90;;;;;;6075336;23;20424;-86
2021/01/08 19:23:59;;;;;;;14.27;12.87;;;1.90;99.90;;;;;;6075291;23;20440;-86
2021/01/08 19:26:27;;;;;;;15.10;11.97;;;1.90;99.90;;;;;;6051146;23;20412;-86
2021/01/08 19:28:55;;;;;;;15.90;12.57;;;1.90;99.90;;;;;;6075841;23;20446;-86
2021/01/08 19:31:25;;;;;;;17.63;13.77;;;1.90;99.90;;;;;;6075773;23;20752;-86
2021/01/08 19:33:55;;;;;;;15.77;12.30;;;1.90;99.90;;;;;;6051512;23;20415;-86
2021/01/08 19:36:45;;;;;;;13.33;10.50;;;1.90;99.90;;;;;;6074950;23;20815;-86
2021/01/08 19:39:13;;;;;;;12.73;10.47;;;1.80;99.90;;;;;;6074928;23;20435;-86
2021/01/08 19:41:41;;;;;;;14.13;12.27;;;1.80;99.90;;;;;;6087050;23;20467;-86
2021/01/08 19:44:09;;;;;;;11.33;9.97;;;1.80;99.90;;;;;;6052629;23;20443;-86
2021/01/08 19:46:39;;;;;;;14.70;10.07;;;1.80;99.90;;;;;;6050927;23;20491;-86
2021/01/08 19:49:08;;;;;;;12.20;9.93;;;1.80;99.90;;;;;;6076808;23;20527;-86
2021/01/08 19:51:37;;;;;;;13.80;11.63;;;1.80;99.90;;;;;;6076080;23;20426;-86
2021/01/08 19:54:06;;;;;;;11.43;10.23;;;1.80;99.90;;;;;;6052274;23;20456;-86
2021/01/08 19:56:41;;;;;;;13.67;11.10;;;1.70;99.90;;;;;;6076829;23;20472;-86
2021/01/08 19:59:10;;;;;;;12.90;11.10;;;1.80;99.90;;;;;;6075861;23;20478;-86
2021/01/08 20:01:41;;;;;;;12.50;10.40;;;1.70;99.90;;;;;;6052097;23;20443;-87
2021/01/08 20:04:09;;;;;;;15.13;11.60;;;1.70;99.90;;;;;;6053180;23;20767;-86
2021/01/08 20:06:37;;;;;;;12.37;10.67;;;1.80;99.90;;;;;;6053327;23;20429;-86
2021/01/08 20:09:05;;;;;;;11.03;9.90;;;1.70;99.90;;;;;;6077007;23;20494;-86
2021/01/08 20:11:32;;;;;;;12.37;10.00;;;1.70;99.90;;;;;;6076311;23;20486;-86
2021/01/08 20:14:00;;;;;;;11.17;9.90;;;1.70;99.90;;;;;;6053380;23;20443;-86
2021/01/08 20:16:27;;;;;;;12.20;10.33;;;1.70;99.90;;;;;;6053596;23;20419;-86
2021/01/08 20:18:57;;;;;;;12.60;11.30;;;1.70;99.90;;;;;;6053168;23;20447;-86
2021/01/08 20:21:24;;;;;;;12.57;11.27;;;1.70;99.90;;;;;;6076358;23;20436;-86
2021/01/08 20:23:52;;;;;;;12.37;10.87;;;1.70;99.90;;;;;;6086830;23;20424;-86
2021/01/08 20:26:19;;;;;;;13.70;10.57;;;1.70;99.90;;;;;;6076726;23;20427;-86
2021/01/08 20:28:47;;;;;;;12.60;11.40;;;1.70;99.90;;;;;;6075081;23;20443;-86
2021/01/08 20:31:14;;;;;;;13.17;11.30;;;1.70;99.90;;;;;;6051956;23;20479;-86
2021/01/08 20:33:42;;;;;;;12.73;11.43;;;1.70;99.90;;;;;;6075659;23;20420;-86
2021/01/08 20:36:11;;;;;;;12.47;11.17;;;1.70;99.90;;;;;;6052261;23;20502;-87
2021/01/08 20:38:41;;;;;;;13.53;11.37;;;1.70;99.90;;;;;;6074474;23;20998;-86
2021/01/08 20:41:09;;;;;;;11.93;10.63;;;1.70;99.90;;;;;;6072628;23;20423;-86
2021/01/08 20:43:37;;;;;;;11.60;9.43;;;1.70;99.90;;;;;;6050059;23;20445;-86
2021/01/08 20:46:04;;;;;;;12.80;11.60;;;1.80;99.90;;;;;;6089214;23;20395;-86
2021/01/08 20:48:32;;;;;;;12.40;10.60;;;1.70;99.90;;;;;;6079293;23;20495;-87
2021/01/08 20:50:59;;;;;;;12.40;11.17;;;1.70;99.90;;;;;;6079769;23;20473;-87
2021/01/08 20:53:28;;;;;;;13.53;11.43;;;1.70;99.90;;;;;;6080674;23;20444;-86
2021/01/08 20:55:57;;;;;;;15.20;12.90;;;1.70;99.90;;;;;;6055181;23;20411;-86
2021/01/08 20:58:24;;;;;;;15.47;13.83;;;1.60;99.90;;;;;;6089039;23;20430;-87
2021/01/08 21:00:52;;;;;;;14.80;13.20;;;1.70;99.90;;;;;;6053708;23;20713;-87
2021/01/08 21:03:19;;;;;;;14.53;13.13;;;1.60;99.90;;;;;;6079033;23;20472;-87
2021/01/08 21:05:47;;;;;;;14.60;11.40;;;1.60;99.90;;;;;;6079301;23;20412;-86
2021/01/08 21:08:14;;;;;;;13.37;12.03;;;1.70;99.90;;;;;;6079271;23;20443;-87
2021/01/08 21:10:43;;;;;;;13.13;11.83;;;1.70;99.90;;;;;;6089224;23;20392;-86
2021/01/08 21:13:11;;;;;;;13.40;12.20;;;1.60;99.90;;;;;;6078088;23;20431;-87
2021/01/08 21:15:39;;;;;;;13.77;12.37;;;1.70;99.90;;;;;;6055511;23;20420;-87
2021/01/08 21:18:07;;;;;;;13.97;12.63;;;1.70;99.90;;;;;;6054953;23;20449;-87
2021/01/08 21:20:35;;;;;;;12.40;11.10;;;1.70;99.90;;;;;;6054985;23;20443;-87
2021/01/08 21:23:02;;;;;;;12.90;11.53;;;1.70;99.90;;;;;;6079133;23;20428;-87
2021/01/08 21:25:29;;;;;;;13.90;12.03;;;1.70;99.90;;;;;;6055084;23;20437;-87
2021/01/08 21:27:58;;;;;;;12.80;11.50;;;1.70;99.90;;;;;;6054363;23;20424;-87
2021/01/08 21:30:26;;;;;;;15.33;13.07;;;1.70;99.90;;;;;;6079900;23;20423;-87
2021/01/08 21:32:54;;;;;;;12.87;11.47;;;1.70;99.90;;;;;;6079324;23;20439;-87
2021/01/08 21:35:21;;;;;;;11.27;10.17;;;1.70;99.90;;;;;;6080221;23;20422;-87
2021/01/08 21:37:49;;;;;;;11.10;9.10;;;1.70;99.90;;;;;;6056143;23;20507;-87
2021/01/08 21:40:19;;;;;;;11.17;10.07;;;1.70;99.90;;;;;;6057236;23;20891;-87
2021/01/08 21:42:48;;;;;;;11.30;10.20;;;1.70;99.90;;;;;;6080381;23;20411;-87
2021/01/08 21:45:18;;;;;;;11.43;10.23;;;1.70;99.90;;;;;;6054325;23;20447;-86
2021/01/08 21:47:45;;;;;;;11.40;10.27;;;1.60;99.90;;;;;;6054599;23;20422;-87
2021/01/08 21:50:15;;;;;;;10.80;9.70;;;1.70;99.90;;;;;;6078129;23;20494;-87
2021/01/08 21:52:42;;;;;;;11.10;10.00;;;1.60;99.90;;;;;;6078655;23;20408;-87
2021/01/08 21:55:11;;;;;;;11.60;10.03;;;1.60;99.90;;;;;;6054366;23;20888;-86
2021/01/08 21:57:38;;;;;;;9.93;8.97;;;1.60;99.90;;;;;;6077838;23;20420;-86
2021/01/08 22:00:09;;;;;;;8.40;7.60;;;1.60;99.90;;;;;;6078246;23;20456;-87
2021/01/08 22:02:39;;;;;;;9.80;8.80;;;1.60;99.90;;;;;;6053971;23;20431;-87
2021/01/08 22:05:08;;;;;;;10.10;8.60;;;1.60;99.90;;;;;;6078007;23;20435;-86
2021/01/08 22:07:37;;;;;;;8.97;8.17;;;1.60;99.90;;;;;;6055381;23;20416;-87
2021/01/08 22:10:06;;;;;;;8.07;7.27;;;1.60;99.90;;;;;;6054278;23;20416;-86
2021/01/08 22:12:33;;;;;;;8.70;7.60;;;1.60;99.90;;;;;;6054915;23;20420;-87
2021/01/08 22:15:01;;;;;;;9.00;7.60;;;1.60;99.90;;;;;;6054199;23;20419;-87
2021/01/08 22:17:29;;;;;;;8.60;7.70;;;1.60;99.90;;;;;;6054568;23;21011;-87
2021/01/08 22:20:00;;;;;;;10.70;8.90;;;1.60;99.90;;;;;;6053914;23;20850;-87
2021/01/08 22:22:27;;;;;;;9.73;8.73;;;1.60;99.90;;;;;;6054814;23;20490;-86
2021/01/08 22:25:00;;;;;;;10.43;8.97;;;1.60;99.90;;;;;;6089795;23;20435;-87
2021/01/08 22:27:27;;;;;;;11.60;10.23;;;1.60;99.90;;;;;;6056153;23;20442;-86
2021/01/08 22:29:57;;;;;;;9.27;8.40;;;1.60;99.90;;;;;;6056122;23;20440;-87
2021/01/08 22:32:25;;;;;;;9.63;8.70;;;1.60;99.90;;;;;;6055868;23;20888;-86
2021/01/08 22:34:53;;;;;;;10.33;9.33;;;1.60;99.90;;;;;;6080397;23;20443;-87
2021/01/08 22:37:21;;;;;;;8.60;7.77;;;1.60;99.90;;;;;;6078807;23;20411;-87
2021/01/08 22:39:50;;;;;;;9.77;8.77;;;1.80;99.90;;;;;;6055166;23;20444;-87
2021/01/08 22:45:55;;;;;;;10.23;8.93;;;1.70;99.90;;;;;;5930797;24;20827;-86
2021/01/08 22:48:45;;;;;;;9.33;8.40;;;1.60;99.90;;;;;;5971036;24;20529;-87
2021/01/08 23:29:08;;;;;;;10.53;8.97;;;1.60;99.90;;;;;;5812478;24;20441;-87
2021/01/08 23:32:35;;;;;;;9.50;8.20;;;1.60;99.90;;;;;;5963264;24;21031;-87
2021/01/08 23:36:17;;;;;;;10.37;8.90;;;1.60;99.90;;;;;;5956719;24;20788;-87
2021/01/08 23:43:02;;;;;;;10.13;8.60;;;1.60;99.90;;;;;;5959254;23;20423;-87
